createdAt,value
2023-03-29T00:00:46.099Z,999.41
2023-03-29T00:01:46.111Z,999.39
2023-03-29T00:02:46.153Z,999.37
2023-03-29T00:03:46.158Z,999.36
2023-03-29T00:04:46.178Z,999.35
2023-03-29T00:05:46.137Z,999.33
2023-03-29T00:06:46.069Z,999.32
2023-03-29T00:07:46.056Z,999.29
2023-03-29T00:08:46.049Z,999.28
2023-03-29T00:09:46.149Z,999.27
2023-03-29T00:10:46.044Z,999.25
2023-03-29T00:11:46.095Z,999.22
2023-03-29T00:12:46.040Z,999.20
2023-03-29T00:13:46.021Z,999.18
2023-03-29T00:14:46.049Z,999.18
2023-03-29T00:15:46.024Z,999.17
2023-03-29T00:16:46.002Z,999.15
2023-03-29T00:17:46.063Z,999.11
2023-03-29T00:18:46.008Z,999.09
2023-03-29T00:19:45.976Z,999.08
2023-03-29T00:21:22.097Z,999.08
2023-03-29T00:21:45.966Z,999.06
2023-03-29T00:22:45.999Z,999.05
2023-03-29T00:23:46.019Z,999.03
2023-03-29T00:24:45.945Z,998.99
2023-03-29T00:25:45.932Z,998.98
2023-03-29T00:26:45.928Z,998.97
2023-03-29T00:27:45.897Z,998.97
2023-03-29T00:28:45.896Z,998.99
2023-03-29T00:29:45.929Z,999.00
2023-03-29T00:30:45.900Z,998.95
2023-03-29T00:31:46.037Z,998.92
2023-03-29T00:32:45.954Z,998.86
2023-03-29T00:33:45.871Z,998.85
2023-03-29T00:34:45.925Z,998.84
2023-03-29T00:35:45.955Z,998.84
2023-03-29T00:36:45.864Z,998.83
2023-03-29T00:37:45.867Z,998.83
2023-03-29T00:38:45.855Z,998.83
2023-03-29T00:39:45.834Z,998.82
2023-03-29T00:40:45.817Z,998.81
2023-03-29T00:41:45.868Z,998.80
2023-03-29T00:42:45.816Z,998.81
2023-03-29T00:43:45.791Z,998.84
2023-03-29T00:44:45.798Z,998.86
2023-03-29T00:45:45.820Z,998.87
2023-03-29T00:46:45.809Z,998.87
2023-03-29T00:47:46.310Z,998.85
2023-03-29T00:48:45.757Z,998.83
2023-03-29T00:49:45.786Z,998.81
2023-03-29T00:50:45.758Z,998.80
2023-03-29T00:51:45.769Z,998.80
2023-03-29T00:52:45.753Z,998.79
2023-03-29T00:53:45.799Z,998.76
2023-03-29T00:54:45.735Z,998.72
2023-03-29T00:55:45.752Z,998.69
2023-03-29T00:56:45.806Z,998.67
2023-03-29T00:57:45.706Z,998.65
2023-03-29T00:58:45.705Z,998.62
2023-03-29T00:59:45.729Z,998.58
2023-03-29T01:00:45.699Z,998.53
2023-03-29T01:01:45.738Z,998.50
2023-03-29T01:02:45.718Z,998.47
2023-03-29T01:03:45.743Z,998.45
2023-03-29T01:04:45.666Z,998.42
2023-03-29T01:05:45.698Z,998.42
2023-03-29T01:06:45.670Z,998.44
2023-03-29T01:07:45.637Z,998.44
2023-03-29T01:08:45.653Z,998.42
2023-03-29T01:09:45.622Z,998.39
2023-03-29T01:10:45.610Z,998.38
2023-03-29T01:11:45.648Z,998.37
2023-03-29T01:12:45.601Z,998.36
2023-03-29T01:13:45.618Z,998.35
2023-03-29T01:14:45.614Z,998.35
2023-03-29T01:15:45.587Z,998.35
2023-03-29T01:16:45.694Z,998.34
2023-03-29T01:17:45.647Z,998.31
2023-03-29T01:18:45.561Z,998.30
2023-03-29T01:19:45.550Z,998.31
2023-03-29T01:20:45.581Z,998.31
2023-03-29T01:21:45.543Z,998.29
2023-03-29T01:22:45.562Z,998.29
2023-03-29T01:23:45.581Z,998.27
2023-03-29T01:24:45.532Z,998.26
2023-03-29T01:25:45.574Z,998.25
2023-03-29T01:26:45.532Z,998.23
2023-03-29T01:27:45.507Z,998.22
2023-03-29T01:28:45.510Z,998.21
2023-03-29T01:29:45.570Z,998.19
2023-03-29T01:30:45.508Z,998.17
2023-03-29T01:31:45.598Z,998.17
2023-03-29T01:32:45.581Z,998.16
2023-03-29T01:33:45.518Z,998.16
2023-03-29T01:34:45.452Z,998.16
2023-03-29T01:35:45.587Z,998.16
2023-03-29T01:36:45.453Z,998.16
2023-03-29T01:37:45.444Z,998.15
2023-03-29T01:38:45.430Z,998.14
2023-03-29T01:39:45.444Z,998.15
2023-03-29T01:40:45.415Z,998.13
2023-03-29T01:41:45.437Z,998.11
2023-03-29T01:42:45.408Z,998.08
2023-03-29T01:43:45.394Z,998.07
2023-03-29T01:44:45.415Z,998.07
2023-03-29T01:45:45.442Z,998.07
2023-03-29T01:46:45.399Z,998.09
2023-03-29T01:47:45.413Z,998.09
2023-03-29T01:48:45.365Z,998.07
2023-03-29T01:49:45.389Z,998.04
2023-03-29T01:50:45.344Z,998.00
2023-03-29T01:51:45.357Z,997.98
2023-03-29T01:52:45.348Z,997.98
2023-03-29T01:53:45.749Z,997.99
2023-03-29T01:54:45.313Z,998.00
2023-03-29T01:55:45.312Z,998.01
2023-03-29T01:56:45.333Z,998.02
2023-03-29T01:57:45.312Z,998.00
2023-03-29T01:58:45.296Z,997.98
2023-03-29T01:59:45.348Z,997.97
2023-03-29T02:00:45.288Z,997.97
2023-03-29T02:01:45.336Z,997.97
2023-03-29T02:02:45.398Z,997.95
2023-03-29T02:03:45.334Z,997.92
2023-03-29T02:04:45.273Z,997.88
2023-03-29T02:05:45.310Z,997.86
2023-03-29T02:06:45.245Z,997.84
2023-03-29T02:07:45.234Z,997.85
2023-03-29T02:08:45.239Z,997.85
2023-03-29T02:09:45.228Z,997.84
2023-03-29T02:10:45.222Z,997.83
2023-03-29T02:11:45.273Z,997.82
2023-03-29T02:12:45.180Z,997.82
2023-03-29T02:13:45.204Z,997.82
2023-03-29T02:14:45.178Z,997.82
2023-03-29T02:15:45.227Z,997.80
2023-03-29T02:16:45.174Z,997.77
2023-03-29T02:17:45.220Z,997.75
2023-03-29T02:18:45.170Z,997.74
2023-03-29T02:19:45.136Z,997.73
2023-03-29T02:20:45.176Z,997.72
2023-03-29T02:21:45.120Z,997.74
2023-03-29T02:22:45.127Z,997.76
2023-03-29T02:24:31.207Z,997.75
2023-03-29T02:24:45.144Z,997.75
2023-03-29T02:26:05.748Z,997.73
2023-03-29T02:26:46.122Z,997.71
2023-03-29T02:27:45.099Z,997.71
2023-03-29T02:28:45.119Z,997.71
2023-03-29T02:29:45.106Z,997.72
2023-03-29T02:30:45.114Z,997.72
2023-03-29T02:31:45.164Z,997.71
2023-03-29T02:32:45.133Z,997.71
2023-03-29T02:33:45.044Z,997.71
2023-03-29T02:34:45.062Z,997.73
2023-03-29T02:35:45.154Z,997.72
2023-03-29T02:36:45.063Z,997.71
2023-03-29T02:37:45.014Z,997.72
2023-03-29T02:38:45.033Z,997.72
2023-03-29T02:39:45.029Z,997.71
2023-03-29T02:40:45.005Z,997.68
2023-03-29T02:41:45.008Z,997.63
2023-03-29T02:42:45.003Z,997.59
2023-03-29T02:43:45.001Z,997.56
2023-03-29T02:44:45.010Z,997.54
2023-03-29T02:45:44.979Z,997.53
2023-03-29T02:46:44.961Z,997.52
2023-03-29T02:47:45.069Z,997.51
2023-03-29T02:48:44.958Z,997.50
2023-03-29T02:49:44.939Z,997.48
2023-03-29T02:50:44.933Z,997.44
2023-03-29T02:51:44.915Z,997.43
2023-03-29T02:52:44.928Z,997.43
2023-03-29T02:53:44.968Z,997.44
2023-03-29T02:54:44.910Z,997.45
2023-03-29T02:55:44.907Z,997.44
2023-03-29T02:56:45.012Z,997.41
2023-03-29T02:57:44.893Z,997.38
2023-03-29T02:58:44.880Z,997.35
2023-03-29T02:59:44.957Z,997.30
2023-03-29T03:00:44.868Z,997.27
2023-03-29T03:01:44.988Z,997.27
2023-03-29T03:02:44.933Z,997.28
2023-03-29T03:03:44.942Z,997.29
2023-03-29T03:04:44.840Z,997.28
2023-03-29T03:05:44.869Z,997.27
2023-03-29T03:06:44.808Z,997.26
2023-03-29T03:07:44.792Z,997.24
2023-03-29T03:08:44.813Z,997.21
2023-03-29T03:09:44.792Z,997.19
2023-03-29T03:10:44.781Z,997.17
2023-03-29T03:11:44.879Z,997.15
2023-03-29T03:12:46.424Z,997.14
2023-03-29T03:13:44.778Z,997.14
2023-03-29T03:14:44.776Z,997.12
2023-03-29T03:15:44.755Z,997.11
2023-03-29T03:16:44.858Z,997.10
2023-03-29T03:17:44.827Z,997.08
2023-03-29T03:18:44.765Z,997.08
2023-03-29T03:19:44.776Z,997.08
2023-03-29T03:20:44.728Z,997.08
2023-03-29T03:21:44.731Z,997.09
2023-03-29T03:22:44.729Z,997.09
2023-03-29T03:23:44.739Z,997.09
2023-03-29T03:24:44.706Z,997.09
2023-03-29T03:25:44.693Z,997.08
2023-03-29T03:26:44.665Z,997.08
2023-03-29T03:27:44.676Z,997.07
2023-03-29T03:28:44.676Z,997.06
2023-03-29T03:29:44.693Z,997.05
2023-03-29T03:30:44.664Z,997.04
2023-03-29T03:31:44.807Z,997.04
2023-03-29T03:32:44.722Z,997.05
2023-03-29T03:33:44.611Z,997.07
2023-03-29T03:34:44.601Z,997.07
2023-03-29T03:35:44.674Z,997.07
2023-03-29T03:36:44.615Z,997.08
2023-03-29T03:37:44.624Z,997.08
2023-03-29T03:38:44.602Z,997.09
2023-03-29T03:39:44.595Z,997.09
2023-03-29T03:40:44.568Z,997.09
2023-03-29T03:41:44.611Z,997.11
2023-03-29T03:42:44.605Z,997.12
2023-03-29T03:43:44.565Z,997.11
2023-03-29T03:44:44.538Z,997.10
2023-03-29T03:45:44.540Z,997.11
2023-03-29T03:46:44.537Z,997.12
2023-03-29T03:47:44.612Z,997.14
2023-03-29T03:48:44.533Z,997.15
2023-03-29T03:49:50.748Z,997.15
2023-03-29T03:50:44.505Z,997.13
2023-03-29T03:51:44.480Z,997.12
2023-03-29T03:52:44.502Z,997.09
2023-03-29T03:53:44.530Z,997.08
2023-03-29T03:54:44.465Z,997.07
2023-03-29T03:55:44.485Z,997.08
2023-03-29T03:56:44.476Z,997.10
2023-03-29T03:57:44.442Z,997.12
2023-03-29T03:58:44.455Z,997.12
2023-03-29T03:59:44.829Z,997.11
2023-03-29T04:00:44.424Z,997.09
2023-03-29T04:01:44.458Z,997.08
2023-03-29T04:02:44.490Z,997.06
2023-03-29T04:03:44.474Z,997.06
2023-03-29T04:04:44.426Z,997.07
2023-03-29T04:05:44.442Z,997.09
2023-03-29T04:06:44.398Z,997.11
2023-03-29T04:07:44.409Z,997.12
2023-03-29T04:08:44.386Z,997.11
2023-03-29T04:09:44.359Z,997.10
2023-03-29T04:10:44.356Z,997.08
2023-03-29T04:11:44.405Z,997.07
2023-03-29T04:12:44.376Z,997.06
2023-03-29T04:13:44.339Z,997.08
2023-03-29T04:14:44.353Z,997.09
2023-03-29T04:15:44.355Z,997.09
2023-03-29T04:16:44.347Z,997.07
2023-03-29T04:17:44.429Z,997.05
2023-03-29T04:18:44.495Z,997.04
2023-03-29T04:19:44.298Z,997.04
2023-03-29T04:20:44.291Z,997.03
2023-03-29T04:21:44.298Z,997.01
2023-03-29T04:22:44.283Z,997.00
2023-03-29T04:23:44.300Z,996.98
2023-03-29T04:24:44.282Z,996.96
2023-03-29T04:25:44.269Z,996.95
2023-03-29T04:26:44.242Z,996.96
2023-03-29T04:27:44.268Z,996.97
2023-03-29T04:28:44.242Z,996.97
2023-03-29T04:29:44.268Z,996.97
2023-03-29T04:30:44.244Z,996.96
2023-03-29T04:31:44.244Z,996.95
2023-03-29T04:32:44.239Z,996.92
2023-03-29T04:33:44.212Z,996.91
2023-03-29T04:34:44.197Z,996.89
2023-03-29T04:35:44.275Z,996.89
2023-03-29T04:36:44.188Z,996.88
2023-03-29T04:37:44.168Z,996.88
2023-03-29T04:38:47.319Z,996.84
2023-03-29T04:39:44.160Z,996.81
2023-03-29T04:40:44.357Z,996.79
2023-03-29T04:41:44.199Z,996.77
2023-03-29T04:42:44.150Z,996.75
2023-03-29T04:43:44.163Z,996.75
2023-03-29T04:44:44.224Z,996.76
2023-03-29T04:45:44.131Z,996.77
2023-03-29T04:46:44.167Z,996.79
2023-03-29T04:47:44.212Z,996.81
2023-03-29T04:48:44.157Z,996.82
2023-03-29T04:49:44.147Z,996.82
2023-03-29T04:50:44.096Z,996.83
2023-03-29T04:51:44.166Z,996.85
2023-03-29T04:52:44.193Z,996.86
2023-03-29T04:53:44.168Z,996.86
2023-03-29T04:54:44.068Z,996.86
2023-03-29T04:55:44.047Z,996.85
2023-03-29T04:56:44.077Z,996.84
2023-03-29T04:57:44.033Z,996.82
2023-03-29T04:58:44.050Z,996.81
2023-03-29T04:59:44.065Z,996.81
2023-03-29T05:00:44.022Z,996.80
2023-03-29T05:01:44.125Z,996.79
2023-03-29T05:02:44.099Z,996.78
2023-03-29T05:03:44.060Z,996.77
2023-03-29T05:04:44.021Z,996.77
2023-03-29T05:05:44.388Z,996.77
2023-03-29T05:06:43.968Z,996.77
2023-03-29T05:07:43.970Z,996.77
2023-03-29T05:08:43.974Z,996.79
2023-03-29T05:09:43.972Z,996.79
2023-03-29T05:10:43.940Z,996.79
2023-03-29T05:11:43.972Z,996.79
2023-03-29T05:12:43.951Z,996.79
2023-03-29T05:13:43.953Z,996.78
2023-03-29T05:14:43.924Z,996.78
2023-03-29T05:15:43.912Z,996.78
2023-03-29T05:16:43.984Z,996.77
2023-03-29T05:17:43.984Z,996.75
2023-03-29T05:18:43.879Z,996.74
2023-03-29T05:19:43.884Z,996.72
2023-03-29T05:20:43.883Z,996.71
2023-03-29T05:21:45.475Z,996.69
2023-03-29T05:22:43.858Z,996.68
2023-03-29T05:23:43.929Z,996.67
2023-03-29T05:24:43.856Z,996.65
2023-03-29T05:25:43.860Z,996.62
2023-03-29T05:26:43.832Z,996.60
2023-03-29T05:27:43.842Z,996.57
2023-03-29T05:28:43.863Z,996.56
2023-03-29T05:29:43.859Z,996.54
2023-03-29T05:30:43.802Z,996.52
2023-03-29T05:31:43.882Z,996.50
2023-03-29T05:32:43.830Z,996.47
2023-03-29T05:33:43.805Z,996.45
2023-03-29T05:34:43.820Z,996.42
2023-03-29T05:35:43.836Z,996.42
2023-03-29T05:36:43.839Z,996.42
2023-03-29T05:37:43.748Z,996.43
2023-03-29T05:38:43.761Z,996.44
2023-03-29T05:39:43.727Z,996.43
2023-03-29T05:40:43.752Z,996.40
2023-03-29T05:41:43.763Z,996.38
2023-03-29T05:42:43.731Z,996.37
2023-03-29T05:43:43.713Z,996.36
2023-03-29T05:44:43.748Z,996.35
2023-03-29T05:45:43.754Z,996.36
2023-03-29T05:46:43.707Z,996.38
2023-03-29T05:47:43.775Z,996.39
2023-03-29T05:48:43.685Z,996.42
2023-03-29T05:49:43.683Z,996.45
2023-03-29T05:50:46.228Z,996.47
2023-03-29T05:51:43.657Z,996.48
2023-03-29T05:52:43.645Z,996.49
2023-03-29T05:53:43.698Z,996.51
2023-03-29T05:54:43.628Z,996.51
2023-03-29T05:55:43.649Z,996.52
2023-03-29T05:56:43.663Z,996.53
2023-03-29T05:57:43.634Z,996.53
2023-03-29T05:58:43.640Z,996.52
2023-03-29T05:59:43.645Z,996.52
2023-03-29T06:00:43.583Z,996.52
2023-03-29T06:01:43.597Z,996.53
2023-03-29T06:02:43.675Z,996.55
2023-03-29T06:03:43.684Z,996.56
2023-03-29T06:04:43.618Z,996.56
2023-03-29T06:05:43.610Z,996.54
2023-03-29T06:06:43.568Z,996.53
2023-03-29T06:07:43.551Z,996.52
2023-03-29T06:08:43.562Z,996.52
2023-03-29T06:09:43.564Z,996.51
2023-03-29T06:10:43.532Z,996.52
2023-03-29T06:11:43.778Z,996.52
2023-03-29T06:12:43.552Z,996.54
2023-03-29T06:13:43.520Z,996.55
2023-03-29T06:14:43.512Z,996.55
2023-03-29T06:15:43.508Z,996.56
2023-03-29T06:16:43.594Z,996.54
2023-03-29T06:17:43.582Z,996.53
2023-03-29T06:18:43.491Z,996.53
2023-03-29T06:19:43.478Z,996.52
2023-03-29T06:20:43.456Z,996.53
2023-03-29T06:21:43.457Z,996.55
2023-03-29T06:22:43.469Z,996.56
2023-03-29T06:23:43.484Z,996.59
2023-03-29T06:24:43.433Z,996.58
2023-03-29T06:25:43.426Z,996.59
2023-03-29T06:26:43.448Z,996.62
2023-03-29T06:27:43.406Z,996.64
2023-03-29T06:28:43.407Z,996.64
2023-03-29T06:29:43.459Z,996.62
2023-03-29T06:30:43.399Z,996.61
2023-03-29T06:31:43.414Z,996.58
2023-03-29T06:32:43.455Z,996.60
2023-03-29T06:33:43.379Z,996.60
2023-03-29T06:34:43.360Z,996.59
2023-03-29T06:35:43.404Z,996.60
2023-03-29T06:36:43.367Z,996.63
2023-03-29T06:37:43.383Z,996.63
2023-03-29T06:38:43.341Z,996.63
2023-03-29T06:39:43.355Z,996.64
2023-03-29T06:40:43.333Z,996.65
2023-03-29T06:41:43.338Z,996.68
2023-03-29T06:42:43.315Z,996.68
2023-03-29T06:43:43.293Z,996.68
2023-03-29T06:44:43.294Z,996.69
2023-03-29T06:45:43.288Z,996.66
2023-03-29T06:46:43.362Z,996.67
2023-03-29T06:47:43.402Z,996.66
2023-03-29T06:48:43.300Z,996.65
2023-03-29T06:49:43.250Z,996.66
2023-03-29T06:50:43.276Z,996.65
2023-03-29T06:51:43.241Z,996.66
2023-03-29T06:52:43.244Z,996.66
2023-03-29T06:53:43.295Z,996.67
2023-03-29T06:54:43.224Z,996.69
2023-03-29T06:55:43.265Z,996.71
2023-03-29T06:56:43.243Z,996.73
2023-03-29T06:57:43.235Z,996.72
2023-03-29T06:58:43.214Z,996.72
2023-03-29T06:59:43.233Z,996.71
2023-03-29T07:00:43.194Z,996.72
2023-03-29T07:01:43.260Z,996.71
2023-03-29T07:02:43.246Z,996.70
2023-03-29T07:03:44.767Z,996.70
2023-03-29T07:04:43.278Z,996.71
2023-03-29T07:05:43.182Z,996.76
2023-03-29T07:06:43.126Z,996.74
2023-03-29T07:07:43.137Z,996.76
2023-03-29T07:08:43.119Z,996.74
2023-03-29T07:09:43.120Z,996.75
2023-03-29T07:10:43.132Z,996.76
2023-03-29T07:11:43.483Z,996.75
2023-03-29T07:12:43.113Z,996.77
2023-03-29T07:13:43.121Z,996.79
2023-03-29T07:14:45.144Z,996.83
2023-03-29T07:15:43.063Z,996.85
2023-03-29T07:16:43.141Z,996.86
2023-03-29T07:17:43.403Z,996.86
2023-03-29T07:18:43.129Z,996.85
2023-03-29T07:19:43.048Z,996.85
2023-03-29T07:20:43.073Z,996.85
2023-03-29T07:21:43.030Z,996.87
2023-03-29T07:22:43.020Z,996.90
2023-03-29T07:23:43.089Z,996.94
2023-03-29T07:24:43.021Z,996.93
2023-03-29T07:25:43.030Z,996.94
2023-03-29T07:26:52.269Z,996.92
2023-03-29T07:27:44.006Z,996.89
2023-03-29T07:28:43.009Z,996.85
2023-03-29T07:29:42.997Z,996.83
2023-03-29T07:30:42.982Z,996.87
2023-03-29T07:31:42.995Z,996.89
2023-03-29T07:32:43.042Z,996.87
2023-03-29T07:33:43.146Z,996.85
2023-03-29T07:34:42.990Z,996.85
2023-03-29T07:35:42.986Z,996.86
2023-03-29T07:36:42.920Z,996.86
2023-03-29T07:37:43.055Z,996.89
2023-03-29T07:38:42.958Z,996.90
2023-03-29T07:39:42.901Z,996.93
2023-03-29T07:40:42.902Z,996.94
2023-03-29T07:41:42.921Z,996.95
2023-03-29T07:42:42.885Z,996.97
2023-03-29T07:43:42.878Z,996.96
2023-03-29T07:44:42.860Z,996.95
2023-03-29T07:45:42.847Z,996.96
2023-03-29T07:46:42.861Z,996.94
2023-03-29T07:47:42.888Z,996.94
2023-03-29T07:48:42.827Z,996.93
2023-03-29T07:49:42.823Z,996.93
2023-03-29T07:50:42.836Z,996.93
2023-03-29T07:51:42.828Z,996.94
2023-03-29T07:52:42.807Z,996.93
2023-03-29T07:53:42.871Z,996.94
2023-03-29T07:54:42.796Z,996.94
2023-03-29T07:55:44.642Z,996.96
2023-03-29T07:56:42.823Z,996.97
2023-03-29T07:57:42.765Z,996.95
2023-03-29T07:58:42.748Z,996.97
2023-03-29T07:59:42.778Z,996.94
2023-03-29T08:00:42.796Z,996.92
2023-03-29T08:01:42.724Z,996.94
2023-03-29T08:02:42.746Z,996.97
2023-03-29T08:03:42.815Z,996.99
2023-03-29T08:04:42.755Z,997.02
2023-03-29T08:05:42.820Z,997.00
2023-03-29T08:06:42.695Z,997.00
2023-03-29T08:07:42.684Z,997.01
2023-03-29T08:08:42.712Z,997.01
2023-03-29T08:09:42.651Z,997.01
2023-03-29T08:10:42.722Z,997.01
2023-03-29T08:11:42.694Z,996.99
2023-03-29T08:12:42.658Z,997.00
2023-03-29T08:13:42.658Z,996.99
2023-03-29T08:14:42.645Z,996.98
2023-03-29T08:15:42.637Z,996.96
2023-03-29T08:16:42.671Z,996.94
2023-03-29T08:17:42.686Z,996.95
2023-03-29T08:18:42.599Z,996.92
2023-03-29T08:19:50.822Z,996.91
2023-03-29T08:20:43.600Z,996.88
2023-03-29T08:21:42.584Z,996.88
2023-03-29T08:22:42.578Z,996.87
2023-03-29T08:23:42.998Z,996.85
2023-03-29T08:24:42.572Z,996.86
2023-03-29T08:25:42.585Z,996.84
2023-03-29T08:26:42.555Z,996.80
2023-03-29T08:27:42.551Z,996.78
2023-03-29T08:28:42.558Z,996.76
2023-03-29T08:29:42.582Z,996.74
2023-03-29T08:30:42.555Z,996.71
2023-03-29T08:31:42.523Z,996.71
2023-03-29T08:32:42.558Z,996.71
2023-03-29T08:33:42.521Z,996.72
2023-03-29T08:34:42.489Z,996.71
2023-03-29T08:35:42.553Z,996.71
2023-03-29T08:36:42.481Z,996.72
2023-03-29T08:37:42.478Z,996.76
2023-03-29T08:38:42.458Z,996.75
2023-03-29T08:39:42.529Z,996.75
2023-03-29T08:40:42.457Z,996.74
2023-03-29T08:41:42.549Z,996.73
2023-03-29T08:42:42.449Z,996.71
2023-03-29T08:43:42.438Z,996.69
2023-03-29T08:44:42.430Z,996.69
2023-03-29T08:45:42.423Z,996.70
2023-03-29T08:46:42.527Z,996.69
2023-03-29T08:47:42.576Z,996.67
2023-03-29T08:48:42.498Z,996.67
2023-03-29T08:49:42.406Z,996.63
2023-03-29T08:50:42.390Z,996.63
2023-03-29T08:51:42.399Z,996.67
2023-03-29T08:52:42.362Z,996.68
2023-03-29T08:53:42.389Z,996.71
2023-03-29T08:54:42.349Z,996.70
2023-03-29T08:55:42.364Z,996.70
2023-03-29T08:56:42.366Z,996.71
2023-03-29T08:57:42.326Z,996.72
2023-03-29T08:58:42.367Z,996.71
2023-03-29T08:59:42.367Z,996.74
2023-03-29T09:00:42.306Z,996.76
2023-03-29T09:01:42.321Z,996.79
2023-03-29T09:02:42.336Z,996.80
2023-03-29T09:03:42.341Z,996.79
2023-03-29T09:04:42.320Z,996.81
2023-03-29T09:05:42.306Z,996.82
2023-03-29T09:06:42.281Z,996.78
2023-03-29T09:07:42.272Z,996.73
2023-03-29T09:08:42.257Z,996.71
2023-03-29T09:09:42.247Z,996.72
2023-03-29T09:10:42.236Z,996.69
2023-03-29T09:11:42.267Z,996.66
2023-03-29T09:12:42.272Z,996.61
2023-03-29T09:13:42.283Z,996.59
2023-03-29T09:14:42.204Z,996.63
2023-03-29T09:15:42.225Z,996.62
2023-03-29T09:16:42.192Z,996.63
2023-03-29T09:17:42.271Z,996.66
2023-03-29T09:18:42.222Z,996.67
2023-03-29T09:19:42.194Z,996.67
2023-03-29T09:20:42.160Z,996.67
2023-03-29T09:21:42.694Z,996.67
2023-03-29T09:22:42.147Z,996.74
2023-03-29T09:23:42.604Z,996.72
2023-03-29T09:24:42.182Z,996.66
2023-03-29T09:25:52.591Z,996.65
2023-03-29T09:26:43.186Z,996.74
2023-03-29T09:27:42.128Z,996.72
2023-03-29T09:28:42.115Z,996.71
2023-03-29T09:29:42.181Z,996.71
2023-03-29T09:30:42.105Z,996.69
2023-03-29T09:31:42.148Z,996.70
2023-03-29T09:32:42.143Z,996.70
2023-03-29T09:33:42.079Z,996.67
2023-03-29T09:34:42.075Z,996.69
2023-03-29T09:35:42.136Z,996.67
2023-03-29T09:36:42.870Z,996.67
2023-03-29T09:37:42.055Z,996.65
2023-03-29T09:38:42.045Z,996.63
2023-03-29T09:39:42.019Z,996.63
2023-03-29T09:40:42.063Z,996.61
2023-03-29T09:41:42.046Z,996.59
2023-03-29T09:42:42.000Z,996.56
2023-03-29T09:43:42.018Z,996.52
2023-03-29T09:44:42.009Z,996.48
2023-03-29T09:45:42.021Z,996.47
2023-03-29T09:46:41.981Z,996.45
2023-03-29T09:47:42.127Z,996.44
2023-03-29T09:48:41.972Z,996.42
2023-03-29T09:49:41.969Z,996.40
2023-03-29T09:50:41.971Z,996.41
2023-03-29T09:51:41.944Z,996.42
2023-03-29T09:52:41.962Z,996.45
2023-03-29T09:53:41.976Z,996.41
2023-03-29T09:54:41.921Z,996.41
2023-03-29T09:55:41.939Z,996.42
2023-03-29T09:56:41.987Z,996.41
2023-03-29T09:57:41.898Z,996.43
2023-03-29T09:58:41.922Z,996.38
2023-03-29T09:59:41.946Z,996.41
2023-03-29T10:00:41.901Z,996.38
2023-03-29T10:01:41.922Z,996.35
2023-03-29T10:02:41.892Z,996.38
2023-03-29T10:03:41.911Z,996.39
2023-03-29T10:04:41.918Z,996.42
2023-03-29T10:05:41.940Z,996.40
2023-03-29T10:06:41.843Z,996.43
2023-03-29T10:07:41.839Z,996.39
2023-03-29T10:08:41.870Z,996.39
2023-03-29T10:09:41.837Z,996.39
2023-03-29T10:10:41.792Z,996.38
2023-03-29T10:11:41.849Z,996.39
2023-03-29T10:12:41.819Z,996.41
2023-03-29T10:13:41.851Z,996.37
2023-03-29T10:14:41.792Z,996.42
2023-03-29T10:15:41.791Z,996.42
2023-03-29T10:16:41.860Z,996.43
2023-03-29T10:17:41.812Z,996.41
2023-03-29T10:18:41.793Z,996.40
2023-03-29T10:19:41.812Z,996.45
2023-03-29T10:20:41.756Z,996.44
2023-03-29T10:21:41.750Z,996.42
2023-03-29T10:22:41.750Z,996.41
2023-03-29T10:23:41.778Z,996.40
2023-03-29T10:24:41.746Z,996.40
2023-03-29T10:25:42.798Z,996.40
2023-03-29T10:26:41.717Z,996.39
2023-03-29T10:27:41.705Z,996.37
2023-03-29T10:28:41.706Z,996.33
2023-03-29T10:29:41.919Z,996.31
2023-03-29T10:30:41.672Z,996.31
2023-03-29T10:31:41.753Z,996.34
2023-03-29T10:32:41.710Z,996.35
2023-03-29T10:33:41.657Z,996.38
2023-03-29T10:34:41.627Z,996.40
2023-03-29T10:35:41.791Z,996.39
2023-03-29T10:36:41.619Z,996.39
2023-03-29T10:37:41.611Z,996.39
2023-03-29T10:38:41.622Z,996.34
2023-03-29T10:39:41.681Z,996.36
2023-03-29T10:40:41.596Z,996.36
2023-03-29T10:41:41.641Z,996.36
2023-03-29T10:42:41.602Z,996.41
2023-03-29T10:43:41.573Z,996.45
2023-03-29T10:44:41.594Z,996.42
2023-03-29T10:45:41.568Z,996.43
2023-03-29T10:46:41.630Z,996.36
2023-03-29T10:47:41.611Z,996.32
2023-03-29T10:48:41.600Z,996.24
2023-03-29T10:49:41.551Z,996.20
2023-03-29T10:50:41.530Z,996.18
2023-03-29T10:51:41.501Z,996.15
2023-03-29T10:52:41.499Z,996.14
2023-03-29T10:53:41.574Z,996.18
2023-03-29T10:54:41.512Z,996.18
2023-03-29T10:55:41.464Z,996.14
2023-03-29T10:56:41.669Z,996.13
2023-03-29T10:57:41.465Z,996.11
2023-03-29T10:58:41.459Z,996.11
2023-03-29T10:59:41.592Z,996.07
2023-03-29T11:00:41.428Z,996.06
2023-03-29T11:01:41.518Z,996.07
2023-03-29T11:02:41.644Z,996.05
2023-03-29T11:03:41.546Z,996.05
2023-03-29T11:04:41.504Z,996.05
2023-03-29T11:05:41.539Z,996.04
2023-03-29T11:06:41.472Z,996.02
2023-03-29T11:07:42.479Z,996.04
2023-03-29T11:08:41.387Z,996.05
2023-03-29T11:09:41.442Z,996.07
2023-03-29T11:10:41.361Z,996.08
2023-03-29T11:11:41.438Z,996.12
2023-03-29T11:12:41.330Z,996.14
2023-03-29T11:13:41.399Z,996.14
2023-03-29T11:14:41.356Z,996.15
2023-03-29T11:15:41.371Z,996.13
2023-03-29T11:16:41.314Z,996.12
2023-03-29T11:17:41.410Z,996.10
2023-03-29T11:18:41.333Z,996.05
2023-03-29T11:19:41.371Z,996.02
2023-03-29T11:20:41.380Z,996.00
2023-03-29T11:21:41.288Z,996.00
2023-03-29T11:22:41.305Z,996.07
2023-03-29T11:23:41.331Z,996.12
2023-03-29T11:24:41.282Z,996.15
2023-03-29T11:25:41.348Z,996.12
2023-03-29T11:26:42.369Z,996.08
2023-03-29T11:27:41.340Z,996.09
2023-03-29T11:28:41.357Z,996.06
2023-03-29T11:29:41.519Z,996.06
2023-03-29T11:30:41.225Z,996.08
2023-03-29T11:31:41.328Z,996.05
2023-03-29T11:32:41.266Z,996.05
2023-03-29T11:33:41.268Z,996.07
2023-03-29T11:34:41.208Z,996.05
2023-03-29T11:35:41.412Z,996.09
2023-03-29T11:36:41.197Z,996.06
2023-03-29T11:37:41.189Z,996.08
2023-03-29T11:38:43.284Z,996.08
2023-03-29T11:39:41.209Z,996.12
2023-03-29T11:40:41.150Z,996.10
2023-03-29T11:41:41.236Z,996.11
2023-03-29T11:42:41.148Z,996.06
2023-03-29T11:43:41.143Z,996.05
2023-03-29T11:44:41.129Z,996.07
2023-03-29T11:45:41.144Z,996.05
2023-03-29T11:46:41.190Z,996.03
2023-03-29T11:47:41.316Z,996.00
2023-03-29T11:48:41.151Z,995.99
2023-03-29T11:49:41.111Z,995.99
2023-03-29T11:50:41.099Z,996.00
2023-03-29T11:51:41.069Z,995.99
2023-03-29T11:52:41.153Z,995.99
2023-03-29T11:53:41.127Z,996.01
2023-03-29T11:54:41.085Z,996.00
2023-03-29T11:55:41.088Z,995.99
2023-03-29T11:56:41.094Z,995.97
2023-03-29T11:57:41.117Z,995.94
2023-03-29T11:58:41.156Z,995.90
2023-03-29T11:59:41.187Z,995.88
2023-03-29T12:00:41.013Z,995.89
2023-03-29T12:01:41.016Z,995.86
2023-03-29T12:02:41.226Z,995.83
2023-03-29T12:03:41.100Z,995.81
2023-03-29T12:04:40.991Z,995.80
2023-03-29T12:05:41.039Z,995.78
2023-03-29T12:06:40.991Z,995.76
2023-03-29T12:07:40.965Z,995.77
2023-03-29T12:08:40.968Z,995.75
2023-03-29T12:09:40.990Z,995.77
2023-03-29T12:10:40.935Z,995.74
2023-03-29T12:11:40.965Z,995.70
2023-03-29T12:12:40.936Z,995.70
2023-03-29T12:13:40.939Z,995.70
2023-03-29T12:14:40.928Z,995.72
2023-03-29T12:15:40.908Z,995.70
2023-03-29T12:16:40.985Z,995.66
2023-03-29T12:17:40.992Z,995.64
2023-03-29T12:18:40.949Z,995.60
2023-03-29T12:19:43.576Z,995.58
2023-03-29T12:20:40.899Z,995.58
2023-03-29T12:21:40.865Z,995.57
2023-03-29T12:22:40.890Z,995.56
2023-03-29T12:23:41.068Z,995.52
2023-03-29T12:24:40.880Z,995.53
2023-03-29T12:25:40.895Z,995.51
2023-03-29T12:26:40.869Z,995.52
2023-03-29T12:27:40.874Z,995.49
2023-03-29T12:28:40.875Z,995.49